Flight Track Log - Related Links

Times and Time Zones

All times are in EDT time to prevent confusion due to time zone crossing. See the SWA3321 flight status page for this flight to view local times or setup timezone preferences in your user account.

Time Position Orientation Groundspeed Altitude Reporting Facility
EDT Latitude Longitude Course Direction KTS MPH feet Rate Location/Type
Tue 10:02:53 AM 41.8167 -87.7333 272° West 179 206 1,800  Level Chicago TRACON
Tue 10:04:31 AM 41.8189 -87.8381 272° West 218 251 6,100 2,842 Climbing Chicago Center
Tue 10:04:47 AM 41.8167 -87.8667 264° West 238 274 7,200 3,194 Climbing Chicago TRACON
Tue 10:05:33 AM 41.8086 -87.9481 262° West 258 297 9,400 2,667 Climbing Chicago Center
Tue 10:06:35 AM 41.8131 -88.0511 273° West 278 320 12,000 1,258 Climbing Chicago Center
Tue 10:07:37 AM 41.8186 -88.1533 274° West 278 320 12,000  Level Chicago Center
Tue 10:08:38 AM 41.8242 -88.2533 274° West 273 314 12,000  Level Chicago Center
Tue 10:09:40 AM 41.8292 -88.3531 274° West 272 313 12,000 1,113 Level Chicago Center
Tue 10:10:42 AM 41.8347 -88.4714 274° West 268 308 14,300 1,790 Climbing Chicago Center
Tue 10:11:44 AM 41.8411 -88.5758 275° West 281 323 15,700 1,887 Climbing Chicago Center
Tue 10:12:46 AM 41.8439 -88.7039 272° West 339 390 18,200 2,293 Climbing Chicago Center
Tue 10:13:47 AM 41.8464 -88.8342 272° West 349 402 20,400 2,049 Climbing Chicago Center
Tue 10:14:49 AM 41.8475 -88.9703 271° West 364 419 22,400 1,935 Climbing Chicago Center
Tue 10:15:51 AM 41.8450 -89.1136 269° West 382 440 24,400 1,935 Climbing Chicago Center
Tue 10:16:53 AM 41.8286 -89.2889 263° West 400 460 26,400 1,707 Climbing Chicago Center
Tue 10:17:54 AM 41.8097 -89.4364 260° West 404 465 27,900 1,463 Climbing Chicago Center
Tue 10:18:56 AM 41.7914 -89.5781 260° West 414 476 29,400 1,355 Climbing Chicago Center
Tue 10:19:58 AM 41.7728 -89.7314 261° West 419 482 30,700 1,597 Climbing Chicago Center
Tue 10:21:00 AM 41.7494 -89.9194 261° West 427 491 32,700 1,951 Climbing Chicago Center
Tue 10:22:01 AM 41.7306 -90.0694 260° West 415 478 34,700 1,122 Climbing Chicago Center
Tue 10:23:03 AM 41.7117 -90.2156 260° West 404 465 35,000 145 Climbing Chicago Center
Tue 10:24:05 AM 41.6906 -90.3683 260° West 418 481 35,000  Level Chicago Center
Tue 10:25:06 AM 41.6700 -90.5161 259° West 409 471 35,000  Level Chicago Center
Tue 10:26:08 AM 41.6519 -90.6561 260° West 402 463 35,000  Level Chicago Center
Tue 10:27:10 AM 41.6283 -90.8331 260° West 402 463 35,000  Level Chicago Center
Tue 10:28:11 AM 41.6083 -90.9800 260° West 402 463 35,000  Level Chicago Center
Tue 10:29:13 AM 41.5881 -91.1261 260° West 404 465 35,000  Level Chicago Center
Tue 10:30:15 AM 41.5675 -91.2739 260° West 405 466 35,000  Level Chicago Center
Tue 10:31:16 AM 41.5425 -91.4211 257° West 407 468 35,000  Level Chicago Center
Tue 10:32:18 AM 41.5000 -91.5628 248° West 412 474 35,000  Level Chicago Center
Tue 10:33:20 AM 41.4533 -91.7369 250° West 415 478 35,000  Level Chicago Center
Tue 10:34:21 AM 41.4153 -91.8808 251° West 413 475 35,000 293 Level Chicago Center
Tue 10:35:23 AM 41.3844 -92.0275 254° West 413 475 35,600 488 Climbing Chicago Center
Tue 10:36:24 AM 41.3733 -92.1808 265° West 416 479 36,000 195 Climbing Chicago Center
Tue 10:37:26 AM 41.3608 -92.3292 264° West 408 470 36,000  Level Chicago Center
Tue 10:38:28 AM 41.3489 -92.4822 264° West 410 472 36,000  Level Chicago Center
Tue 10:39:29 AM 41.3367 -92.6300 264° West 407 468 36,000  Level Chicago Center
Tue 10:40:14 AM 41.3267 -92.7531 264° West 411 473 36,000  Level Minneapolis Center
Tue 10:41:15 AM 41.3147 -92.9003 264° West 410 472 36,000  Level Minneapolis Center
Tue 10:42:17 AM 41.3011 -93.0506 263° West 410 472 36,000  Level Minneapolis Center
Tue 10:43:18 AM 41.2856 -93.2281 263° West 410 472 36,000  Level Minneapolis Center
Tue 10:44:20 AM 41.2722 -93.3750 263° West 408 470 36,000  Level Minneapolis Center
Tue 10:45:21 AM 41.2597 -93.5217 264° West 405 466 36,000  Level Minneapolis Center
Tue 10:46:22 AM 41.2483 -93.6661 264° West 400 460 36,000  Level Minneapolis Center
Tue 10:47:24 AM 41.2347 -93.8150 263° West 408 470 36,000  Level Minneapolis Center
Tue 10:48:25 AM 41.2203 -93.9625 263° West 408 470 36,000  Level Minneapolis Center
Tue 10:49:27 AM 41.2044 -94.1381 263° West 405 466 36,000  Level Minneapolis Center
Tue 10:50:28 AM 41.1911 -94.2708 262° West 404 465 36,000  Level Minneapolis Center
Tue 10:51:30 AM 41.1767 -94.4192 263° West 404 465 36,000  Level Minneapolis Center
Tue 10:52:31 AM 41.1619 -94.5667 262° West 403 464 36,000 246 Level Minneapolis Center
Tue 10:53:32 AM 41.1439 -94.7428 262° West 402 463 36,500 976 Climbing Minneapolis Center
Tue 10:54:34 AM 41.1294 -94.8883 263° West 399 459 38,000 732 Climbing Minneapolis Center
Tue 10:55:35 AM 41.1139 -95.0308 262° West 393 452 38,000  Level Minneapolis Center
Tue 10:56:37 AM 41.0994 -95.1739 262° West 391 450 38,000  Level Minneapolis Center
Tue 10:57:38 AM 41.0842 -95.3164 262° West 390 449 38,000  Level Minneapolis Center
Tue 10:58:40 AM 41.0681 -95.4603 262° West 392 451 38,000  Level Minneapolis Center
Tue 10:59:41 AM 41.0528 -95.6033 262° West 391 450 38,000  Level Minneapolis Center
Tue 11:00:43 AM 41.0364 -95.7461 261° West 390 449 38,000  Level Minneapolis Center
Tue 11:01:44 AM 41.0208 -95.8892 262° West 390 449 38,000  Level Minneapolis Center
Tue 11:02:46 AM 41.0056 -96.0322 262° West 389 448 38,000  Level Minneapolis Center
Tue 11:03:47 AM 40.9897 -96.1742 262° West 388 447 38,000  Level Minneapolis Center
Tue 11:04:49 AM 40.9703 -96.3439 261° West 387 445 38,000  Level Minneapolis Center
Tue 11:05:50 AM 40.9542 -96.4850 261° West 387 445 38,000  Level Minneapolis Center
Tue 11:06:51 AM 40.9369 -96.6242 261° West 384 442 38,000  Level Minneapolis Center
Tue 11:07:53 AM 40.9211 -96.7661 262° West 388 447 38,000  Level Minneapolis Center
Tue 11:08:54 AM 40.9069 -96.9064 262° West 386 444 38,000  Level Minneapolis Center
Tue 11:09:56 AM 40.8950 -97.0483 264° West 387 445 38,000  Level Minneapolis Center
Tue 11:10:58 AM 40.8803 -97.1903 262° West 389 448 38,000  Level Minneapolis Center
Tue 11:11:59 AM 40.8664 -97.3328 263° West 390 449 38,000  Level Minneapolis Center
Tue 11:13:00 AM 40.8519 -97.4711 262° West 387 445 38,000  Level Minneapolis Center
Tue 11:14:02 AM 40.8361 -97.6414 263° West 388 447 38,000  Level Minneapolis Center
Tue 11:15:03 AM 40.8214 -97.7831 262° West 388 447 38,000  Level Minneapolis Center
Tue 11:16:05 AM 40.8067 -97.9231 262° West 387 445 38,000  Level Minneapolis Center
Tue 11:17:06 AM 40.7919 -98.0636 262° West 386 444 38,000  Level Minneapolis Center
Tue 11:18:08 AM 40.7769 -98.2042 262° West 386 444 38,000  Level Minneapolis Center
Tue 11:19:09 AM 40.7617 -98.3442 262° West 384 442 38,000  Level Minneapolis Center
Tue 11:20:11 AM 40.7472 -98.4850 262° West 385 443 38,000  Level Minneapolis Center
Tue 11:21:12 AM 40.7319 -98.6264 262° West 386 444 38,000  Level Minneapolis Center
Tue 11:22:13 AM 40.7161 -98.7678 262° West 386 444 38,000  Level Minneapolis Center
Tue 11:23:15 AM 40.7003 -98.9075 262° West 384 442 38,000  Level Minneapolis Center
Tue 11:24:16 AM 40.6844 -99.0478 262° West 384 442 38,000  Level Minneapolis Center
Tue 11:25:16 AM 40.6681 -99.1861 261° West 382 440 38,000  Level Denver Center
Tue 11:26:18 AM 40.6525 -99.3256 262° West 382 440 38,000  Level Denver Center
Tue 11:27:20 AM 40.6353 -99.4661 261° West 386 444 38,000  Level Denver Center
Tue 11:28:22 AM 40.6158 -99.6361 261° West 390 449 38,000  Level Denver Center
Tue 11:29:24 AM 40.5983 -99.7767 261° West 389 448 38,000  Level Denver Center
Tue 11:30:25 AM 40.5822 -99.9047 261° West 387 445 38,000  Level Denver Center
Tue 11:31:27 AM 40.5636 -100.0589 261° West 383 441 38,000  Level Denver Center
Tue 11:32:29 AM 40.5481 -100.1908 261° West 381 438 38,000  Level Denver Center
Tue 11:33:31 AM 40.5289 -100.3439 261° West 379 436 38,000  Level Denver Center
Tue 11:34:33 AM 40.5125 -100.4750 261° West 378 435 38,000  Level Denver Center
Tue 11:35:35 AM 40.4919 -100.6269 260° West 376 433 38,000  Level Denver Center
Tue 11:36:37 AM 40.4758 -100.7569 261° West 376 433 38,000  Level Denver Center
Tue 11:37:39 AM 40.4583 -100.8875 260° West 377 434 38,000  Level Denver Center
Tue 11:38:41 AM 40.4386 -101.0406 260° West 378 435 38,000  Level Denver Center
Tue 11:39:43 AM 40.4197 -101.1731 259° West 382 440 38,000  Level Denver Center
Tue 11:40:45 AM 40.3989 -101.3278 260° West 386 444 38,000  Level Denver Center
Tue 11:41:47 AM 40.3800 -101.4611 260° West 387 445 38,000  Level Denver Center
Tue 11:42:49 AM 40.3575 -101.6167 259° West 387 445 38,000  Level Denver Center
Tue 11:43:51 AM 40.3392 -101.7514 260° West 391 450 38,000  Level Denver Center
Tue 11:44:53 AM 40.3206 -101.8869 260° West 393 452 38,000  Level Denver Center
Tue 11:45:55 AM 40.2975 -102.0456 259° West 397 457 38,000  Level Denver Center
Tue 11:46:57 AM 40.2775 -102.1808 259° West 395 455 38,000  Level Denver Center
Tue 11:47:58 AM 40.2539 -102.3419 259° West 403 464 38,000  Level Denver Center
Tue 11:49:00 AM 40.2342 -102.4797 259° West 403 464 38,000  Level Denver Center
Tue 11:50:02 AM 40.2111 -102.6397 259° West 400 460 38,000  Level Denver Center
Tue 11:51:16 AM 40.1867 -102.7967 259° West 396 456 38,000  Level Denver Center
Tue 11:52:18 AM 40.1603 -102.9633 258° West 397 457 38,000  Level Denver Center
Tue 11:53:20 AM 40.1386 -103.1064 259° West 398 458 38,000  Level Denver Center
Tue 11:54:22 AM 40.1172 -103.2514 259° West 402 463 38,000  Level Denver Center
Tue 11:55:24 AM 40.0950 -103.3969 259° West 405 466 38,000  Level Denver Center
Tue 11:56:26 AM 40.0711 -103.5442 258° West 410 472 38,000  Level Denver Center
Tue 11:57:28 AM 40.0481 -103.6919 259° West 412 474 38,000  Level Denver Center
Tue 11:58:30 AM 40.0236 -103.8450 258° West 424 488 38,000  Level Denver Center
Tue 11:59:32 AM 39.9989 -103.9931 258° West 416 479 38,000  Level Denver Center
Tue 12:00:34 PM 39.9703 -104.1708 258° West 429 494 38,000  Level Denver Center
Tue 12:01:36 PM 39.9447 -104.3233 258° West 429 494 38,000  Level Denver Center
Tue 12:02:37 PM 39.9192 -104.4764 258° West 431 496 38,000  Level Denver Center
Tue 12:03:39 PM 39.8939 -104.6269 258° West 426 490 38,000  Level Denver Center
Tue 12:04:41 PM 39.8658 -104.7758 256° West 425 489 38,000  Level Denver Center
Tue 12:05:43 PM 39.8358 -104.9281 256° West 433 498 38,000  Level Denver Center
Tue 12:06:45 PM 39.8014 -105.1056 256° West 433 498 38,000  Level Denver Center
Tue 12:07:47 PM 39.7672 -105.2558 254° West 430 495 38,000  Level Denver Center
Tue 12:08:49 PM 39.7281 -105.4028 251° West 428 493 38,000  Level Denver Center
Tue 12:09:50 PM 39.6894 -105.5514 251° West 428 493 38,000  Level Denver Center
Tue 12:10:52 PM 39.6506 -105.6989 251° West 426 490 38,000  Level Denver Center
Tue 12:11:54 PM 39.6122 -105.8464 251° West 427 491 38,000  Level Denver Center
Tue 12:12:56 PM 39.5744 -105.9936 252° West 426 490 38,000  Level Denver Center
Tue 12:13:58 PM 39.5350 -106.1417 251° West 433 498 38,000  Level Denver Center
Tue 12:15:00 PM 39.4925 -106.3025 251° West 434 499 38,000  Level Denver Center
Tue 12:16:01 PM 39.4531 -106.4503 251° West 433 498 38,000  Level Denver Center
Tue 12:17:03 PM 39.4119 -106.6022 251° West 430 495 38,000  Level Denver Center
Tue 12:18:05 PM 39.3675 -106.7636 250° West 430 495 38,000  Level Denver Center
Tue 12:19:07 PM 39.3308 -106.9061 252° West 435 501 38,000  Level Denver Center
Tue 12:20:08 PM 39.2850 -107.0692 250° West 432 497 38,000  Level Denver Center
Tue 12:21:10 PM 39.2450 -107.2106 250° West 436 502 38,000  Level Denver Center
Tue 12:22:12 PM 39.2061 -107.3522 251° West 437 503 38,000  Level Denver Center
Tue 12:23:13 PM 39.1656 -107.4928 250° West 436 502 38,000  Level Denver Center
Tue 12:24:15 PM 39.1186 -107.6578 250° West 438 504 38,000  Level Denver Center
Tue 12:25:16 PM 39.0717 -107.8247 250° West 441 507 38,000  Level Denver Center
Tue 12:26:18 PM 39.0317 -107.9694 250° West 446 513 38,000  Level Denver Center
Tue 12:27:20 PM 38.9900 -108.1119 249° West 445 512 38,000  Level Denver Center
Tue 12:28:21 PM 38.9428 -108.2783 250° West 443 510 38,000  Level Denver Center
Tue 12:29:23 PM 38.9022 -108.4203 250° West 439 505 38,000  Level Denver Center
Tue 12:30:25 PM 38.8536 -108.5839 249° West 438 504 38,000  Level Denver Center
Tue 12:31:26 PM 38.8122 -108.7250 249° West 440 506 38,000  Level Denver Center
Tue 12:32:28 PM 38.7711 -108.8653 249° West 439 505 38,000  Level Denver Center
Tue 12:33:29 PM 38.7236 -109.0294 250° West 440 506 38,000  Level Denver Center
Tue 12:34:31 PM 38.6806 -109.1700 249° West 442 509 38,000  Level Denver Center
Tue 12:35:32 PM 38.6322 -109.3358 250° West 445 512 38,000 -341 Level Denver Center
Tue 12:36:34 PM 38.5886 -109.4764 248° West 445 512 37,300 -823 Descending Denver Center
Tue 12:37:36 PM 38.5378 -109.6439 249° West 452 520 36,300 -634 Descending Denver Center
Tue 12:38:37 PM 38.4947 -109.7864 249° West 450 518 36,000 -146 Descending Denver Center
Tue 12:39:39 PM 38.4458 -109.9258 246° West 447 514 36,000  Level Denver Center
Tue 12:40:40 PM 38.3786 -110.0819 241° Southwest 449 517 36,000  Level Denver Center
Tue 12:41:42 PM 38.3308 -110.1922 241° Southwest 447 514 36,000  Level Denver Center
Tue 12:42:44 PM 38.2536 -110.3747 242° Southwest 459 528 36,000  Level Denver Center
Tue 12:43:45 PM 38.1942 -110.5131 241° Southwest 464 534 36,000  Level Denver Center
Tue 12:44:47 PM 38.1356 -110.6506 242° Southwest 462 532 36,000  Level Denver Center
Tue 12:45:02 PM 38.1161 -110.6975 242° Southwest 463 533 36,000  Level Salt Lake Center
Tue 12:45:49 PM 38.0656 -110.8103 240° Southwest 464 534 36,000 -222 Level Denver Center
Tue 12:46:50 PM 38.0017 -110.9597 242° Southwest 464 534 35,600 -701 Descending Denver Center
Tue 12:48:06 PM 37.9286 -111.1322 242° Southwest 463 533 34,400 -913 Descending Salt Lake Center
Tue 12:49:08 PM 37.8650 -111.2733 240° Southwest 463 533 33,500 -919 Descending Salt Lake Center
Tue 12:50:10 PM 37.8036 -111.4186 242° Southwest 466 536 32,500 -732 Descending Salt Lake Center
Tue 12:51:11 PM 37.7392 -111.5619 240° Southwest 470 541 32,000 -244 Descending Salt Lake Center
Tue 12:52:13 PM 37.6644 -111.7308 241° Southwest 462 532 32,000  Level Salt Lake Center
Tue 12:53:13 PM 37.6006 -111.8692 240° Southwest 457 526 32,000  Level Denver Center
Tue 12:54:16 PM 37.5383 -112.0094 241° Southwest 459 528 32,000  Level Salt Lake Center
Tue 12:55:16 PM 37.4761 -112.1497 241° Southwest 461 531 32,000  Level Los Angeles Center
Tue 12:56:19 PM 37.4114 -112.2922 240° Southwest 463 533 32,000  Level Salt Lake Center
Tue 12:57:19 PM 37.3444 -112.4331 239° Southwest 467 537 32,000 -290 Level Los Angeles Center
Tue 12:58:23 PM 37.2797 -112.5756 240° Southwest 467 537 31,400 -774 Descending Los Angeles Center
Tue 12:59:23 PM 37.2144 -112.7181 240° Southwest 467 537 30,400 -738 Descending Los Angeles Center
Tue 01:00:25 PM 37.1500 -112.8589 240° Southwest 464 534 29,900 -857 Descending Salt Lake Center
Tue 01:01:29 PM 37.0850 -112.9997 240° Southwest 465 535 28,600 -1,632 Descending Los Angeles Center
Tue 01:02:30 PM 37.0072 -113.1664 240° Southwest 462 532 26,500 -1,918 Descending Los Angeles Center
Tue 01:03:31 PM 36.9411 -113.3067 240° Southwest 467 537 24,700 -1,200 Descending Los Angeles Center
Tue 01:04:35 PM 36.8794 -113.4428 241° Southwest 454 522 24,000 -333 Descending Los Angeles Center
Tue 01:05:37 PM 36.8178 -113.5756 240° Southwest 444 511 24,000  Level Los Angeles Center
Tue 01:06:38 PM 36.7572 -113.7092 241° Southwest 442 509 24,000 -528 Level Los Angeles Center
Tue 01:07:42 PM 36.6950 -113.8422 240° Southwest 444 511 22,900 -1,984 Descending Los Angeles Center
Tue 01:08:42 PM 36.6225 -113.9956 240° Southwest 432 497 19,900 -2,613 Descending Los Angeles Center
Tue 01:09:46 PM 36.5650 -114.1197 240° Southwest 420 483 17,500 -2,400 Descending Los Angeles Center
Tue 01:10:47 PM 36.5044 -114.2486 240° Southwest 405 466 14,900 -2,455 Descending Los Angeles Center
Tue 01:11:14 PM 36.4814 -114.3003 241° Southwest 393 452 13,900 -1,705 Descending Los Angeles Center
Tue 01:12:15 PM 36.4286 -114.4119 240° Southwest 370 426 12,400 -1,237 Descending Los Angeles Center
Tue 01:12:51 PM 36.3986 -114.4617 233° Southwest 349 402 11,900 -1,000 Descending Los Angeles Center
Tue 01:13:15 PM 36.3653 -114.4872 212° Southwest 329 379 11,400 -1,125 Descending Los Angeles Center
Tue 01:13:55 PM 36.3119 -114.4889 181° South 329 379 10,700 -1,279 Descending Los Angeles Center
Tue 01:14:16 PM 36.2742 -114.4967 189° South 319 367 10,100 -1,377 Descending Los Angeles Center
Tue 01:14:56 PM 36.2267 -114.5053 188° South 312 359 9,300 -1,279 Descending Los Angeles Center
Tue 01:15:17 PM 36.1922 -114.5272 207° Southwest 312 359 8,800 -1,279 Descending Los Angeles Center
Tue 01:15:57 PM 36.1475 -114.5439 197° South 306 352 8,000 -787 Descending Los Angeles Center
Tue 01:16:18 PM 36.1167 -114.5661 210° Southwest 293 337 8,000  Level Los Angeles Center
Tue 01:17:01 PM 36.0836 -114.6156 230° Southwest 263 303 8,000  Level Los Angeles Center
Tue 01:17:19 PM 36.0769 -114.6408 252° West 243 280 8,000  Level Los Angeles Center
Tue 01:18:01 PM 36.0711 -114.6969 263° West 249 287 8,000  Level Los Angeles Center
Tue 01:18:25 PM 36.0731 -114.7300 274° West 233 268 8,000 -563 Level Los Angeles Center
Tue 01:19:05 PM 36.0731 -114.7789 270° West 243 280 7,400 -964 Descending Los Angeles Center
Tue 01:19:21 PM 36.0747 -114.8067 274° West 237 273 7,100 -689 Descending Los Angeles Center
Tue 01:20:06 PM 36.0886 -114.8564 289° West 234 269 6,700 -627 Descending Los Angeles Center
Tue 01:20:28 PM 36.0742 -114.8919 243° Southwest 229 264 6,400 -885 Descending Los Angeles Center
Tue 01:21:07 PM 36.0714 -114.9336 265° West 234 269 5,800 -1,200 Descending Los Angeles Center
Tue 01:21:28 PM 36.0717 -114.9594 271° West 192 221 5,200 -1,219 Descending Los Angeles Center
Tue 01:22:11 PM 36.0722 -114.9972 271° West 211 243 4,500 -984 Descending Los Angeles Center
Tue 01:22:29 PM 36.0750 -115.0247 277° West 180 207 4,200 -1,100 Descending Los Angeles Center
Tue 01:23:11 PM 36.0747 -115.0528 269° West 186 214 3,400 -1,377 Descending Los Angeles Center
Tue 01:23:30 PM 36.0733 -115.0761 266° West 146 168 2,800 -1,015 Descending Los Angeles Center
Tue 01:24:16 PM 36.0733 -115.1086 270° West 156 180 2,300 -393 Descending Los Angeles Center
Tue 01:25:17 PM 36.0731 -115.1553 270° West 153 176 2,100 -197 Descending Los Angeles Center

Login

Don't have an account? Register now (free) for customized features, flight alerts, and more!